sensor_id;sensor_type;location;lat;lon;timestamp;temperature;humidity
35633;DHT22;21754;48.216;-1.628;2023-06-24T08:26:32;27.60;99.90
35633;DHT22;21754;48.216;-1.628;2023-06-24T08:28:58;25.20;99.90
35633;DHT22;21754;48.216;-1.628;2023-06-24T08:31:25;25.10;99.90
35633;DHT22;21754;48.216;-1.628;2023-06-24T08:33:54;25.10;99.90
35633;DHT22;21754;48.216;-1.628;2023-06-24T10:00:18;25.20;99.90
35633;DHT22;21754;48.216;-1.628;2023-06-24T10:52:13;27.70;99.90
35633;DHT22;21754;48.216;-1.628;2023-06-24T10:54:40;28.90;99.90
35633;DHT22;21754;48.216;-1.628;2023-06-24T10:57:07;28.90;99.90
35633;DHT22;21754;48.216;-1.628;2023-06-24T15:43:18;29.00;99.90
35633;DHT22;21754;48.216;-1.628;2023-06-24T15:45:44;35.60;75.40
35633;DHT22;21754;48.216;-1.628;2023-06-24T15:48:09;35.50;71.40
35633;DHT22;21754;48.216;-1.628;2023-06-24T15:50:35;35.40;72.60
35633;DHT22;21754;48.216;-1.628;2023-06-24T15:53:00;35.40;75.60
35633;DHT22;21754;48.216;-1.628;2023-06-24T15:55:26;35.30;69.20
35633;DHT22;21754;48.216;-1.628;2023-06-24T15:57:52;35.30;71.00
35633;DHT22;21754;48.216;-1.628;2023-06-24T16:00:17;35.40;79.10
35633;DHT22;21754;48.216;-1.628;2023-06-24T16:02:43;35.50;74.30
35633;DHT22;21754;48.216;-1.628;2023-06-24T16:05:09;35.50;64.50
35633;DHT22;21754;48.216;-1.628;2023-06-24T16:07:35;35.60;70.90
35633;DHT22;21754;48.216;-1.628;2023-06-24T16:10:02;35.60;65.50
35633;DHT22;21754;48.216;-1.628;2023-06-24T16:12:27;35.70;75.50
35633;DHT22;21754;48.216;-1.628;2023-06-24T16:14:53;35.70;64.60
35633;DHT22;21754;48.216;-1.628;2023-06-24T16:17:19;35.60;65.30
35633;DHT22;21754;48.216;-1.628;2023-06-24T16:19:45;35.50;60.20
35633;DHT22;21754;48.216;-1.628;2023-06-24T16:22:10;35.50;65.90
35633;DHT22;21754;48.216;-1.628;2023-06-24T16:24:36;35.70;64.00
35633;DHT22;21754;48.216;-1.628;2023-06-24T16:27:02;35.60;57.10
35633;DHT22;21754;48.216;-1.628;2023-06-24T16:29:28;35.50;59.30
35633;DHT22;21754;48.216;-1.628;2023-06-24T16:34:19;35.30;59.80
35633;DHT22;21754;48.216;-1.628;2023-06-24T16:36:45;35.70;66.90
35633;DHT22;21754;48.216;-1.628;2023-06-24T16:39:10;35.70;58.30
35633;DHT22;21754;48.216;-1.628;2023-06-24T16:41:36;35.60;61.60
35633;DHT22;21754;48.216;-1.628;2023-06-24T16:44:02;35.70;59.80
35633;DHT22;21754;48.216;-1.628;2023-06-24T16:46:27;35.70;55.00
35633;DHT22;21754;48.216;-1.628;2023-06-24T16:48:53;35.80;60.90
35633;DHT22;21754;48.216;-1.628;2023-06-24T16:51:19;36.10;56.60
35633;DHT22;21754;48.216;-1.628;2023-06-24T16:53:47;36.00;53.70
35633;DHT22;21754;48.216;-1.628;2023-06-24T16:56:13;35.70;53.80
35633;DHT22;21754;48.216;-1.628;2023-06-24T16:58:38;35.70;57.70
35633;DHT22;21754;48.216;-1.628;2023-06-24T17:01:04;35.90;54.10
35633;DHT22;21754;48.216;-1.628;2023-06-24T17:03:29;35.90;54.60
35633;DHT22;21754;48.216;-1.628;2023-06-24T17:05:55;36.00;56.40
35633;DHT22;21754;48.216;-1.628;2023-06-24T17:08:21;36.20;58.60
35633;DHT22;21754;48.216;-1.628;2023-06-24T17:10:46;36.30;56.50
35633;DHT22;21754;48.216;-1.628;2023-06-24T17:13:12;36.40;56.50
35633;DHT22;21754;48.216;-1.628;2023-06-24T17:15:38;36.40;56.00
35633;DHT22;21754;48.216;-1.628;2023-06-24T17:18:04;36.40;52.20
35633;DHT22;21754;48.216;-1.628;2023-06-24T17:20:29;36.40;53.30
35633;DHT22;21754;48.216;-1.628;2023-06-24T17:22:55;36.60;54.50
35633;DHT22;21754;48.216;-1.628;2023-06-24T17:25:22;36.70;56.90
35633;DHT22;21754;48.216;-1.628;2023-06-24T17:27:48;36.70;51.80
35633;DHT22;21754;48.216;-1.628;2023-06-24T17:30:13;36.70;51.00
35633;DHT22;21754;48.216;-1.628;2023-06-24T17:32:40;36.80;54.00
35633;DHT22;21754;48.216;-1.628;2023-06-24T17:35:06;36.90;52.10
35633;DHT22;21754;48.216;-1.628;2023-06-24T17:37:32;36.90;50.80
35633;DHT22;21754;48.216;-1.628;2023-06-24T17:39:57;36.90;49.30
35633;DHT22;21754;48.216;-1.628;2023-06-24T17:42:23;36.80;49.30
35633;DHT22;21754;48.216;-1.628;2023-06-24T17:44:49;36.80;51.00
35633;DHT22;21754;48.216;-1.628;2023-06-24T17:47:14;36.60;47.50
35633;DHT22;21754;48.216;-1.628;2023-06-24T17:49:40;36.50;50.40
35633;DHT22;21754;48.216;-1.628;2023-06-24T17:52:06;36.60;52.90
35633;DHT22;21754;48.216;-1.628;2023-06-24T17:54:31;36.70;51.30
35633;DHT22;21754;48.216;-1.628;2023-06-24T17:56:57;36.80;54.60
35633;DHT22;21754;48.216;-1.628;2023-06-24T17:59:22;36.90;53.20
35633;DHT22;21754;48.216;-1.628;2023-06-24T18:01:48;37.00;52.10
35633;DHT22;21754;48.216;-1.628;2023-06-24T18:04:14;36.80;49.80
35633;DHT22;21754;48.216;-1.628;2023-06-24T18:06:39;36.90;52.40
35633;DHT22;21754;48.216;-1.628;2023-06-24T18:09:05;36.90;47.40
35633;DHT22;21754;48.216;-1.628;2023-06-24T18:11:30;36.60;45.90
35633;DHT22;21754;48.216;-1.628;2023-06-24T18:13:56;36.40;47.20
35633;DHT22;21754;48.216;-1.628;2023-06-24T18:16:22;36.30;48.60
35633;DHT22;21754;48.216;-1.628;2023-06-24T18:18:47;36.40;50.70
35633;DHT22;21754;48.216;-1.628;2023-06-24T18:21:13;36.40;50.40
35633;DHT22;21754;48.216;-1.628;2023-06-24T18:23:40;36.30;49.80
35633;DHT22;21754;48.216;-1.628;2023-06-24T18:26:05;36.30;47.10
35633;DHT22;21754;48.216;-1.628;2023-06-24T18:28:31;36.10;49.90
35633;DHT22;21754;48.216;-1.628;2023-06-24T18:30:56;35.90;49.80
35633;DHT22;21754;48.216;-1.628;2023-06-24T18:33:22;35.60;50.50
35633;DHT22;21754;48.216;-1.628;2023-06-24T18:35:48;35.40;51.00
35633;DHT22;21754;48.216;-1.628;2023-06-24T18:38:13;35.20;51.80
35633;DHT22;21754;48.216;-1.628;2023-06-24T18:40:39;35.10;54.60
35633;DHT22;21754;48.216;-1.628;2023-06-24T18:43:04;35.10;56.90
35633;DHT22;21754;48.216;-1.628;2023-06-24T18:45:30;35.00;58.40
35633;DHT22;21754;48.216;-1.628;2023-06-24T18:47:56;35.00;58.40
35633;DHT22;21754;48.216;-1.628;2023-06-24T18:50:23;35.00;60.00
35633;DHT22;21754;48.216;-1.628;2023-06-24T18:52:48;35.10;61.10
35633;DHT22;21754;48.216;-1.628;2023-06-24T18:55:14;35.00;62.30
35633;DHT22;21754;48.216;-1.628;2023-06-24T18:57:40;35.00;63.20
35633;DHT22;21754;48.216;-1.628;2023-06-24T19:00:06;35.00;63.20
35633;DHT22;21754;48.216;-1.628;2023-06-24T19:02:31;35.00;65.20
35633;DHT22;21754;48.216;-1.628;2023-06-24T19:04:57;35.00;65.30
35633;DHT22;21754;48.216;-1.628;2023-06-24T19:07:25;34.90;66.00
35633;DHT22;21754;48.216;-1.628;2023-06-24T19:09:50;34.90;65.90
35633;DHT22;21754;48.216;-1.628;2023-06-24T19:12:16;34.90;67.00
35633;DHT22;21754;48.216;-1.628;2023-06-24T19:14:42;34.90;71.10
35633;DHT22;21754;48.216;-1.628;2023-06-24T19:17:08;34.80;70.40
35633;DHT22;21754;48.216;-1.628;2023-06-24T19:19:34;34.80;70.20
35633;DHT22;21754;48.216;-1.628;2023-06-24T19:22:00;34.70;72.20
35633;DHT22;21754;48.216;-1.628;2023-06-24T19:24:29;34.70;72.80
35633;DHT22;21754;48.216;-1.628;2023-06-24T19:26:55;34.60;73.90
35633;DHT22;21754;48.216;-1.628;2023-06-24T19:29:21;34.50;74.00
35633;DHT22;21754;48.216;-1.628;2023-06-24T19:31:46;34.40;73.80
35633;DHT22;21754;48.216;-1.628;2023-06-24T19:34:12;34.30;74.20
35633;DHT22;21754;48.216;-1.628;2023-06-24T19:36:38;34.20;74.30
35633;DHT22;21754;48.216;-1.628;2023-06-24T19:39:03;34.00;74.00
35633;DHT22;21754;48.216;-1.628;2023-06-24T19:41:29;33.80;77.20
35633;DHT22;21754;48.216;-1.628;2023-06-24T19:44:03;33.50;77.50
35633;DHT22;21754;48.216;-1.628;2023-06-24T19:46:30;33.20;80.10
35633;DHT22;21754;48.216;-1.628;2023-06-24T19:48:55;32.90;80.60
35633;DHT22;21754;48.216;-1.628;2023-06-24T19:51:21;32.70;83.50
35633;DHT22;21754;48.216;-1.628;2023-06-24T19:53:47;32.40;85.50
35633;DHT22;21754;48.216;-1.628;2023-06-24T19:56:12;32.20;88.00
35633;DHT22;21754;48.216;-1.628;2023-06-24T19:58:38;32.00;89.30
35633;DHT22;21754;48.216;-1.628;2023-06-24T20:01:03;31.80;91.40
35633;DHT22;21754;48.216;-1.628;2023-06-24T20:03:30;31.60;93.10
35633;DHT22;21754;48.216;-1.628;2023-06-24T20:05:56;31.50;95.00
35633;DHT22;21754;48.216;-1.628;2023-06-24T20:08:22;31.30;96.20
35633;DHT22;21754;48.216;-1.628;2023-06-24T20:10:47;31.20;97.30
35633;DHT22;21754;48.216;-1.628;2023-06-24T20:13:13;31.00;98.00
35633;DHT22;21754;48.216;-1.628;2023-06-24T20:15:38;30.80;98.80
35633;DHT22;21754;48.216;-1.628;2023-06-24T20:18:04;30.70;99.90
35633;DHT22;21754;48.216;-1.628;2023-06-24T20:20:30;30.60;99.90
35633;DHT22;21754;48.216;-1.628;2023-06-24T20:35:06;30.50;99.90
35633;DHT22;21754;48.216;-1.628;2023-06-24T20:37:32;29.80;99.90
35633;DHT22;21754;48.216;-1.628;2023-06-24T20:39:57;29.70;99.90
35633;DHT22;21754;48.216;-1.628;2023-06-24T20:42:23;29.60;99.90
35633;DHT22;21754;48.216;-1.628;2023-06-24T20:44:49;29.50;99.90
35633;DHT22;21754;48.216;-1.628;2023-06-24T22:17:24;29.40;99.90
